createdAt,value
2022-10-21T00:00:26.108Z,97678.53
2022-10-21T00:01:27.703Z,97680.25
2022-10-21T00:02:29.274Z,97679.28
2022-10-21T00:03:30.863Z,97677.25
2022-10-21T00:04:33.138Z,97676.75
2022-10-21T00:05:34.652Z,97671.44
2022-10-21T00:06:36.155Z,97676.38
2022-10-21T00:07:37.834Z,97674.91
2022-10-21T00:08:39.963Z,97678.75
2022-10-21T00:09:41.648Z,97675.94
2022-10-21T00:10:43.421Z,97671.38
2022-10-21T00:11:44.959Z,97680.84
2022-10-21T00:12:46.475Z,97676.47
2022-10-21T00:13:48.021Z,97672.53
2022-10-21T00:14:51.594Z,97667.84
2022-10-21T00:16:00.100Z,97670.72
2022-10-21T00:17:01.651Z,97666.16
2022-10-21T00:18:03.870Z,97674.34
2022-10-21T00:19:05.501Z,97670.47
2022-10-21T00:20:10.101Z,97668.75
2022-10-21T00:21:15.685Z,97673.03
2022-10-21T00:22:17.262Z,97673.03
2022-10-21T00:23:18.905Z,97668.91
2022-10-21T00:24:20.490Z,97675.88
2022-10-21T00:25:22.054Z,97677.47
2022-10-21T00:26:23.629Z,97678.25
2022-10-21T00:27:25.505Z,97683.59
2022-10-21T00:28:28.236Z,97672.88
2022-10-21T00:29:30.145Z,97678.25
2022-10-21T00:30:31.688Z,97672.09
2022-10-21T00:31:34.763Z,97680.94
2022-10-21T00:32:36.589Z,97675.25
2022-10-21T00:33:38.580Z,97679.22
2022-10-21T00:34:43.167Z,97680.00
2022-10-21T00:35:51.201Z,97686.16
2022-10-21T00:36:52.742Z,97682.38
2022-10-21T00:37:54.295Z,97683.78
2022-10-21T00:38:56.815Z,97676.03
2022-10-21T00:39:59.154Z,97671.47
2022-10-21T00:41:00.873Z,97679.22
2022-10-21T00:42:02.614Z,97673.97
2022-10-21T00:43:04.150Z,97678.25
2022-10-21T00:44:10.657Z,97678.25
2022-10-21T00:45:22.831Z,97682.81
2022-10-21T00:46:32.902Z,97677.88
2022-10-21T00:47:42.987Z,97680.72
2022-10-21T00:48:55.666Z,97675.94
2022-10-21T00:50:01.641Z,97670.84
2022-10-21T00:51:07.490Z,97668.78
2022-10-21T00:52:21.863Z,97666.22
2022-10-21T00:53:25.158Z,97669.53
2022-10-21T00:54:29.365Z,97659.53
2022-10-21T00:55:36.401Z,97665.66
2022-10-21T00:56:41.251Z,97669.91
2022-10-21T00:57:42.982Z,97667.56
2022-10-21T00:58:47.720Z,97666.84
2022-10-21T00:59:54.231Z,97671.09
2022-10-21T01:00:58.458Z,97666.59
2022-10-21T01:02:00.211Z,97657.44
2022-10-21T01:03:01.918Z,97660.50
2022-10-21T01:04:04.224Z,97658.63
2022-10-21T01:05:07.059Z,97658.00
2022-10-21T01:06:12.652Z,97656.81
2022-10-21T01:07:14.721Z,97653.63
2022-10-21T01:08:16.311Z,97656.75
2022-10-21T01:09:19.802Z,97658.72
2022-10-21T01:10:21.441Z,97663.47
2022-10-21T01:11:25.632Z,97663.03
2022-10-21T01:12:39.941Z,97657.06
2022-10-21T01:13:47.459Z,97666.56
2022-10-21T01:15:18.264Z,97659.22
2022-10-21T01:16:28.798Z,97661.59
2022-10-21T01:17:44.589Z,97668.72
2022-10-21T01:18:56.128Z,97664.31
2022-10-21T01:20:23.877Z,97666.28
2022-10-21T01:21:35.283Z,97665.94
2022-10-21T01:22:58.150Z,97660.78
2022-10-21T01:24:21.135Z,97669.13
2022-10-21T01:26:00.398Z,97666.44
2022-10-21T01:27:24.576Z,97663.72
2022-10-21T01:28:35.361Z,97671.88
2022-10-21T01:30:02.652Z,97671.38
2022-10-21T01:31:18.438Z,97674.84
2022-10-21T01:32:36.322Z,97674.06
2022-10-21T01:33:56.310Z,97672.72
2022-10-21T01:35:10.882Z,97677.94
2022-10-21T01:36:26.185Z,97669.31
2022-10-21T01:37:51.598Z,97672.34
2022-10-21T01:39:10.277Z,97678.25
2022-10-21T01:40:20.347Z,97678.09
2022-10-21T01:41:31.214Z,97676.13
2022-10-21T01:42:41.664Z,97674.75
2022-10-21T01:43:50.210Z,97687.13
2022-10-21T01:45:09.691Z,97688.72
2022-10-21T01:46:23.678Z,97683.91
2022-10-21T01:47:32.437Z,97688.53
2022-10-21T01:48:44.743Z,97685.38
2022-10-21T01:49:48.610Z,97685.78
2022-10-21T01:50:58.527Z,97686.38
2022-10-21T01:52:01.805Z,97687.09
2022-10-21T01:53:09.630Z,97694.69
2022-10-21T01:54:19.021Z,97694.31
2022-10-21T01:55:24.835Z,97688.38
2022-10-21T01:56:27.949Z,97693.97
2022-10-21T01:57:33.681Z,97690.41
2022-10-21T01:58:37.704Z,97695.06
2022-10-21T01:59:42.569Z,97694.69
2022-10-21T02:00:46.273Z,97695.66
2022-10-21T02:01:49.370Z,97698.06
2022-10-21T02:02:50.933Z,97699.13
2022-10-21T02:03:56.846Z,97702.00
2022-10-21T02:05:02.013Z,97701.09
2022-10-21T02:06:04.449Z,97699.16
2022-10-21T02:07:06.034Z,97697.44
2022-10-21T02:08:08.265Z,97699.94
2022-10-21T02:09:10.027Z,97699.31
2022-10-21T02:10:11.663Z,97701.44
2022-10-21T02:11:14.275Z,97701.91
2022-10-21T02:12:17.036Z,97701.44
2022-10-21T02:13:24.906Z,97697.38
2022-10-21T02:14:37.396Z,97701.34
2022-10-21T02:15:41.106Z,97698.00
2022-10-21T02:16:43.005Z,97699.22
2022-10-21T02:17:55.556Z,97698.25
2022-10-21T02:18:59.516Z,97701.38
2022-10-21T02:20:03.884Z,97702.19
2022-10-21T02:21:10.326Z,97703.97
2022-10-21T02:22:14.633Z,97698.44
2022-10-21T02:23:19.267Z,97713.09
2022-10-21T02:24:57.343Z,97707.44
2022-10-21T02:25:59.261Z,97702.81
2022-10-21T02:27:01.031Z,97702.22
2022-10-21T02:28:03.308Z,97704.81
2022-10-21T02:29:05.092Z,97700.66
2022-10-21T02:30:07.285Z,97707.22
2022-10-21T02:31:38.836Z,97713.97
2022-10-21T02:33:03.736Z,97710.59
2022-10-21T02:34:30.350Z,97712.38
2022-10-21T02:35:59.316Z,97714.94
2022-10-21T02:38:49.892Z,97714.72
2022-10-21T02:39:58.238Z,97711.31
2022-10-21T02:41:06.418Z,97715.06
2022-10-21T02:42:13.758Z,97714.34
2022-10-21T02:43:44.136Z,97715.25
2022-10-21T02:44:45.789Z,97714.50
2022-10-21T02:45:48.471Z,97719.75
2022-10-21T02:46:50.579Z,97720.16
2022-10-21T02:47:52.328Z,97721.06
2022-10-21T02:48:53.999Z,97722.06
2022-10-21T02:49:55.865Z,97717.31
2022-10-21T02:50:57.412Z,97725.41
2022-10-21T02:51:58.940Z,97729.59
2022-10-21T02:53:00.517Z,97731.88
2022-10-21T02:54:02.187Z,97722.47
2022-10-21T02:55:03.949Z,97724.66
2022-10-21T02:56:05.726Z,97725.44
2022-10-21T02:57:07.301Z,97724.56
2022-10-21T02:58:08.867Z,97730.59
2022-10-21T02:59:10.501Z,97725.44
2022-10-21T03:00:12.877Z,97726.00
2022-10-21T03:01:14.573Z,97726.72
2022-10-21T03:02:16.172Z,97730.19
2022-10-21T03:03:17.854Z,97736.91
2022-10-21T03:04:19.498Z,97731.78
2022-10-21T03:05:21.126Z,97732.75
2022-10-21T03:06:22.720Z,97729.19
2022-10-21T03:07:24.257Z,97728.59
2022-10-21T03:08:25.917Z,97731.16
2022-10-21T03:09:27.441Z,97735.31
2022-10-21T03:10:28.979Z,97740.91
2022-10-21T03:11:30.549Z,97736.53
2022-10-21T03:12:32.127Z,97734.03
2022-10-21T03:13:33.684Z,97738.81
2022-10-21T03:14:35.213Z,97730.16
2022-10-21T03:15:36.739Z,97741.84
2022-10-21T03:16:38.254Z,97739.69
2022-10-21T03:17:39.980Z,97733.72
2022-10-21T03:18:41.825Z,97735.81
2022-10-21T03:19:43.332Z,97739.47
2022-10-21T03:20:48.407Z,97734.78
2022-10-21T03:21:50.041Z,97734.97
2022-10-21T03:22:51.561Z,97739.25
2022-10-21T03:23:53.146Z,97736.56
2022-10-21T03:24:54.742Z,97746.19
2022-10-21T03:25:56.259Z,97741.81
2022-10-21T03:26:57.809Z,97740.28
2022-10-21T03:27:59.349Z,97740.00
2022-10-21T03:29:00.900Z,97741.59
2022-10-21T03:30:03.404Z,97740.00
2022-10-21T03:31:05.125Z,97743.75
2022-10-21T03:32:06.729Z,97743.28
2022-10-21T03:33:08.298Z,97744.38
2022-10-21T03:34:09.801Z,97750.63
2022-10-21T03:35:11.414Z,97745.56
2022-10-21T03:36:12.909Z,97740.03
2022-10-21T03:37:14.491Z,97741.91
2022-10-21T03:38:16.051Z,97743.81
2022-10-21T03:39:17.644Z,97748.47
2022-10-21T03:40:19.237Z,97740.03
2022-10-21T03:41:20.864Z,97748.69
2022-10-21T03:42:22.400Z,97752.56
2022-10-21T03:43:24.019Z,97750.47
2022-10-21T03:44:25.507Z,97753.75
2022-10-21T03:45:27.166Z,97748.38
2022-10-21T03:46:28.695Z,97753.75
2022-10-21T03:47:30.269Z,97760.69
2022-10-21T03:48:31.812Z,97755.34
2022-10-21T03:50:39.962Z,97759.59
2022-10-21T03:51:41.513Z,97752.66
2022-10-21T03:52:43.269Z,97749.97
2022-10-21T03:53:44.813Z,97753.16
2022-10-21T03:54:46.788Z,97759.59
2022-10-21T03:55:56.339Z,97758.50
2022-10-21T03:56:58.278Z,97756.91
2022-10-21T03:57:59.804Z,97758.28
2022-10-21T03:59:01.422Z,97758.63
2022-10-21T04:00:04.644Z,97755.94
2022-10-21T04:01:06.277Z,97755.16
2022-10-21T04:02:07.994Z,97759.69
2022-10-21T04:03:09.555Z,97767.22
2022-10-21T04:04:11.429Z,97765.16
2022-10-21T04:05:14.538Z,97763.56
2022-10-21T04:06:16.145Z,97753.78
2022-10-21T04:07:17.687Z,97754.84
2022-10-21T04:08:19.279Z,97756.44
2022-10-21T04:09:21.186Z,97759.13
2022-10-21T04:10:22.773Z,97763.06
2022-10-21T04:11:24.542Z,97760.09
2022-10-21T04:12:26.084Z,97763.84
2022-10-21T04:13:27.728Z,97763.84
2022-10-21T04:14:29.276Z,97768.69
2022-10-21T04:15:30.825Z,97768.81
2022-10-21T04:16:34.169Z,97766.94
2022-10-21T04:17:38.201Z,97761.38
2022-10-21T04:18:40.056Z,97768.41
2022-10-21T04:19:41.667Z,97764.44
2022-10-21T04:20:43.856Z,97761.50
2022-10-21T04:21:46.357Z,97763.06
2022-10-21T04:22:47.934Z,97764.66
2022-10-21T04:23:49.475Z,97766.84
2022-10-21T04:24:51.121Z,97758.31
2022-10-21T04:25:52.990Z,97762.88
2022-10-21T04:26:57.867Z,97762.88
2022-10-21T04:27:59.412Z,97762.06
2022-10-21T04:29:00.920Z,97766.84
2022-10-21T04:30:02.539Z,97763.56
2022-10-21T04:31:04.566Z,97760.88
2022-10-21T04:32:06.125Z,97768.91
2022-10-21T04:33:07.676Z,97773.19
2022-10-21T04:34:09.302Z,97768.41
2022-10-21T04:35:10.863Z,97769.00
2022-10-21T04:36:12.620Z,97771.50
2022-10-21T04:37:14.226Z,97765.44
2022-10-21T04:38:16.424Z,97769.81
2022-10-21T04:39:18.193Z,97776.34
2022-10-21T04:40:19.904Z,97774.34
2022-10-21T04:41:21.446Z,97774.94
2022-10-21T04:42:23.894Z,97772.06
2022-10-21T04:43:26.014Z,97772.94
2022-10-21T04:44:27.631Z,97768.78
2022-10-21T04:45:29.262Z,97772.88
2022-10-21T04:46:31.012Z,97771.25
2022-10-21T04:47:32.550Z,97773.59
2022-10-21T04:48:34.126Z,97777.38
2022-10-21T04:49:35.748Z,97774.47
2022-10-21T04:50:37.374Z,97766.53
2022-10-21T04:51:38.941Z,97778.63
2022-10-21T04:52:40.758Z,97769.00
2022-10-21T04:53:42.671Z,97773.75
2022-10-21T04:54:44.277Z,97764.66
2022-10-21T04:55:45.885Z,97778.09
2022-10-21T04:56:47.530Z,97775.34
2022-10-21T04:57:49.068Z,97764.09
2022-10-21T04:58:50.643Z,97768.06
2022-10-21T04:59:52.195Z,97770.16
2022-10-21T05:00:54.063Z,97770.44
2022-10-21T05:01:55.779Z,97772.03
2022-10-21T05:02:57.475Z,97773.19
2022-10-21T05:03:59.152Z,97772.34
2022-10-21T05:05:00.721Z,97777.47
2022-10-21T05:06:02.260Z,97776.66
2022-10-21T05:07:03.772Z,97780.94
2022-10-21T05:08:10.647Z,97775.03
2022-10-21T05:09:13.460Z,97784.03
2022-10-21T05:10:15.055Z,97778.78
2022-10-21T05:11:16.585Z,97783.03
2022-10-21T05:12:18.168Z,97778.53
2022-10-21T05:13:19.714Z,97777.78
2022-10-21T05:14:22.732Z,97778.78
2022-10-21T05:15:25.653Z,97778.69
2022-10-21T05:16:27.265Z,97775.94
2022-10-21T05:17:28.836Z,97779.09
2022-10-21T05:18:31.405Z,97779.31
2022-10-21T05:19:32.980Z,97782.19
2022-10-21T05:20:34.645Z,97778.44
2022-10-21T05:22:38.921Z,97778.38
2022-10-21T05:23:41.873Z,97777.28
2022-10-21T05:24:43.428Z,97786.75
2022-10-21T05:25:45.962Z,97783.78
2022-10-21T05:26:47.517Z,97780.53
2022-10-21T05:27:49.271Z,97785.22
2022-10-21T05:28:50.933Z,97787.81
2022-10-21T05:29:52.447Z,97786.63
2022-10-21T05:30:55.937Z,97789.59
2022-10-21T05:31:57.549Z,97787.13
2022-10-21T05:32:59.068Z,97788.19
2022-10-21T05:34:00.620Z,97789.59
2022-10-21T05:35:02.531Z,97794.47
2022-10-21T05:36:07.733Z,97785.94
2022-10-21T05:37:09.302Z,97787.22
2022-10-21T05:38:10.925Z,97788.63
2022-10-21T05:39:12.589Z,97789.16
2022-10-21T05:40:14.139Z,97793.31
2022-10-21T05:41:16.656Z,97785.63
2022-10-21T05:42:18.230Z,97796.13
2022-10-21T05:43:20.065Z,97794.16
2022-10-21T05:44:21.566Z,97792.19
2022-10-21T05:45:23.321Z,97798.72
2022-10-21T05:46:24.820Z,97801.00
2022-10-21T05:47:26.357Z,97801.69
2022-10-21T05:48:27.951Z,97807.25
2022-10-21T05:49:29.504Z,97808.81
2022-10-21T05:50:31.088Z,97808.25
2022-10-21T05:51:32.621Z,97808.63
2022-10-21T05:52:34.240Z,97806.47
2022-10-21T05:53:35.848Z,97811.19
2022-10-21T05:54:37.337Z,97804.47
2022-10-21T05:55:38.880Z,97811.09
2022-10-21T05:56:42.514Z,97803.69
2022-10-21T05:57:44.163Z,97809.41
2022-10-21T05:58:45.825Z,97809.22
2022-10-21T05:59:47.430Z,97814.75
2022-10-21T06:00:49.954Z,97811.56
2022-10-21T06:01:51.645Z,97811.97
2022-10-21T06:02:54.444Z,97804.47
2022-10-21T06:03:56.030Z,97807.66
2022-10-21T06:04:57.601Z,97813.38
2022-10-21T06:06:01.015Z,97819.13
2022-10-21T06:07:02.538Z,97811.59
2022-10-21T06:08:04.234Z,97820.81
2022-10-21T06:09:05.833Z,97826.38
2022-10-21T06:10:08.215Z,97820.47
2022-10-21T06:11:12.712Z,97814.63
2022-10-21T06:12:14.280Z,97812.91
2022-10-21T06:13:15.836Z,97816.63
2022-10-21T06:14:17.437Z,97819.56
2022-10-21T06:15:19.080Z,97818.22
2022-10-21T06:16:20.598Z,97820.88
2022-10-21T06:17:22.435Z,97825.81
2022-10-21T06:18:24.124Z,97821.78
2022-10-21T06:19:25.640Z,97823.09
2022-10-21T06:20:27.191Z,97822.25
2022-10-21T06:21:28.977Z,97825.19
2022-10-21T06:22:30.597Z,97819.56
2022-10-21T06:23:32.653Z,97827.06
2022-10-21T06:24:34.288Z,97832.94
2022-10-21T06:25:36.062Z,97828.09
2022-10-21T06:26:37.672Z,97823.53
2022-10-21T06:27:39.450Z,97830.41
2022-10-21T06:28:42.507Z,97819.13
2022-10-21T06:29:44.102Z,97824.13
2022-10-21T06:30:47.366Z,97819.69
2022-10-21T06:31:48.916Z,97826.53
2022-10-21T06:32:50.657Z,97822.91
2022-10-21T06:33:52.281Z,97828.63
2022-10-21T06:34:54.336Z,97831.97
2022-10-21T06:35:56.195Z,97828.84
2022-10-21T06:36:57.971Z,97827.56
2022-10-21T06:37:59.471Z,97829.66
2022-10-21T06:39:00.999Z,97834.56
2022-10-21T06:40:04.556Z,97833.31
2022-10-21T06:41:12.435Z,97832.53
2022-10-21T06:42:16.278Z,97832.97
2022-10-21T06:43:17.965Z,97830.81
2022-10-21T06:44:19.711Z,97827.97
2022-10-21T06:45:21.214Z,97832.13
2022-10-21T06:46:22.855Z,97833.28
2022-10-21T06:47:24.670Z,97825.06
2022-10-21T06:48:26.293Z,97828.56
2022-10-21T06:49:27.949Z,97829.06
2022-10-21T06:50:29.540Z,97836.53
2022-10-21T06:51:31.153Z,97825.47
2022-10-21T06:52:33.629Z,97828.28
2022-10-21T06:53:38.979Z,97825.75
2022-10-21T06:54:41.080Z,97827.66
2022-10-21T06:55:42.641Z,97829.84
2022-10-21T06:56:44.170Z,97828.88
2022-10-21T06:57:45.729Z,97827.91
2022-10-21T06:58:49.258Z,97830.38
2022-10-21T06:59:50.844Z,97823.72
2022-10-21T07:00:52.390Z,97829.09
2022-10-21T07:02:01.493Z,97827.75
2022-10-21T07:03:03.223Z,97830.47
2022-10-21T07:04:06.097Z,97824.91
2022-10-21T07:05:08.888Z,97839.75
2022-10-21T07:06:10.778Z,97824.03
2022-10-21T07:07:13.013Z,97828.22
2022-10-21T07:08:14.629Z,97828.66
2022-10-21T07:09:16.893Z,97827.13
2022-10-21T07:10:18.571Z,97830.13
2022-10-21T07:11:20.083Z,97830.72
2022-10-21T07:12:21.639Z,97830.13
2022-10-21T07:13:25.962Z,97833.44
2022-10-21T07:14:27.992Z,97830.69
2022-10-21T07:15:29.564Z,97833.47
2022-10-21T07:16:34.376Z,97833.59
2022-10-21T07:17:36.232Z,97832.69
2022-10-21T07:18:40.539Z,97827.88
2022-10-21T07:19:44.305Z,97833.75
2022-10-21T07:20:46.031Z,97829.69
2022-10-21T07:21:47.772Z,97833.31
2022-10-21T07:22:49.336Z,97829.13
2022-10-21T07:23:52.084Z,97828.06
2022-10-21T07:24:53.646Z,97832.59
2022-10-21T07:25:55.232Z,97823.47
2022-10-21T07:26:56.894Z,97826.22
2022-10-21T07:27:58.587Z,97818.81
2022-10-21T07:29:01.066Z,97829.91
2022-10-21T07:30:02.781Z,97822.66
2022-10-21T07:31:05.786Z,97821.94
2022-10-21T07:32:07.434Z,97822.63
2022-10-21T07:33:09.554Z,97816.13
2022-10-21T07:34:12.738Z,97820.22
2022-10-21T07:35:14.380Z,97819.78
2022-10-21T07:36:25.250Z,97820.69
2022-10-21T07:37:26.861Z,97817.97
2022-10-21T07:38:28.517Z,97822.66
2022-10-21T07:39:30.266Z,97821.09
2022-10-21T07:40:31.859Z,97820.63
2022-10-21T07:41:37.372Z,97819.31
2022-10-21T07:42:39.005Z,97830.09
2022-10-21T07:43:40.580Z,97820.88
2022-10-21T07:44:42.169Z,97814.47
2022-10-21T07:45:44.266Z,97815.06
2022-10-21T07:46:46.583Z,97812.56
2022-10-21T07:47:50.987Z,97815.75
2022-10-21T07:48:52.642Z,97816.09
2022-10-21T07:49:54.205Z,97815.97
2022-10-21T07:51:03.304Z,97815.50
2022-10-21T07:52:05.062Z,97813.22
2022-10-21T07:53:12.328Z,97808.28
2022-10-21T07:54:36.221Z,97805.63
2022-10-21T07:55:37.762Z,97807.91
2022-10-21T07:56:42.847Z,97810.69
2022-10-21T07:57:44.817Z,97812.06
2022-10-21T07:58:49.408Z,97801.34
2022-10-21T07:59:51.102Z,97800.22
2022-10-21T08:00:52.650Z,97798.84
2022-10-21T08:01:54.223Z,97802.00
2022-10-21T08:02:56.633Z,97804.88
2022-10-21T08:03:58.791Z,97795.28
2022-10-21T08:05:00.387Z,97793.84
2022-10-21T08:06:03.603Z,97794.72
2022-10-21T08:07:09.131Z,97802.28
2022-10-21T08:08:13.299Z,97792.13
2022-10-21T08:09:16.274Z,97791.06
2022-10-21T08:10:17.942Z,97791.13
2022-10-21T08:11:31.185Z,97789.59
2022-10-21T08:12:32.740Z,97788.31
2022-10-21T08:13:35.014Z,97779.38
2022-10-21T08:14:36.598Z,97783.09
2022-10-21T08:15:42.654Z,97775.84
2022-10-21T08:16:44.476Z,97772.47
2022-10-21T08:17:46.206Z,97774.31
2022-10-21T08:18:48.742Z,97774.78
2022-10-21T08:19:50.404Z,97774.34
2022-10-21T08:20:52.352Z,97767.50
2022-10-21T08:21:54.524Z,97765.63
2022-10-21T08:22:56.196Z,97766.72
2022-10-21T08:23:58.968Z,97775.28
2022-10-21T08:25:00.476Z,97774.72
2022-10-21T08:26:02.162Z,97767.44
2022-10-21T08:27:05.407Z,97765.16
2022-10-21T08:28:07.205Z,97759.94
2022-10-21T08:29:08.777Z,97757.44
2022-10-21T08:30:10.685Z,97754.38
2022-10-21T08:31:17.993Z,97751.44
2022-10-21T08:32:19.504Z,97756.88
2022-10-21T08:33:21.052Z,97751.34
2022-10-21T08:34:22.717Z,97751.09
2022-10-21T08:35:24.345Z,97754.25
2022-10-21T08:36:26.636Z,97760.91
2022-10-21T08:37:28.218Z,97760.81
2022-10-21T08:38:29.771Z,97745.63
2022-10-21T08:39:31.376Z,97755.97
2022-10-21T08:40:49.149Z,97743.50
2022-10-21T08:41:55.274Z,97745.59
2022-10-21T08:42:56.886Z,97739.84
2022-10-21T08:44:13.652Z,97739.44
2022-10-21T08:45:28.289Z,97742.22
2022-10-21T08:46:41.148Z,97744.34
2022-10-21T08:47:47.140Z,97749.28
2022-10-21T08:48:58.250Z,97737.00
2022-10-21T08:50:04.667Z,97733.72
2022-10-21T08:51:13.536Z,97739.34
2022-10-21T08:52:31.080Z,97732.47
2022-10-21T08:53:36.055Z,97733.25
2022-10-21T08:54:50.876Z,97733.16
2022-10-21T08:55:57.355Z,97736.06
2022-10-21T08:57:00.490Z,97735.13
2022-10-21T08:58:04.339Z,97732.41
2022-10-21T08:59:23.109Z,97728.84
2022-10-21T09:00:39.598Z,97733.84
2022-10-21T09:01:55.472Z,97719.19
2022-10-21T09:03:08.833Z,97724.56
2022-10-21T09:04:25.793Z,97718.06
2022-10-21T09:05:52.264Z,97720.66
2022-10-21T09:06:56.754Z,97719.53
2022-10-21T09:08:00.849Z,97729.09
2022-10-21T09:09:20.599Z,97711.78
2022-10-21T09:10:46.394Z,97716.03
2022-10-21T09:12:06.425Z,97711.97
2022-10-21T09:13:31.352Z,97709.94
2022-10-21T09:14:58.579Z,97705.00
2022-10-21T09:16:06.537Z,97702.75
2022-10-21T09:17:18.672Z,97698.69
2022-10-21T09:18:50.006Z,97699.84
2022-10-21T09:19:58.703Z,97705.03
2022-10-21T09:21:09.321Z,97691.66
2022-10-21T09:22:35.287Z,97699.84
2022-10-21T09:23:53.428Z,97698.16
2022-10-21T09:25:23.521Z,97688.34
2022-10-21T09:26:47.568Z,97689.97
2022-10-21T09:27:56.001Z,97683.28
2022-10-21T09:29:01.253Z,97687.81
2022-10-21T09:30:07.126Z,97687.56
2022-10-21T09:31:20.471Z,97686.44
2022-10-21T09:32:31.604Z,97675.19
2022-10-21T09:33:37.020Z,97680.09
2022-10-21T09:34:43.608Z,97680.34
2022-10-21T09:35:54.019Z,97678.13
2022-10-21T09:36:58.079Z,97681.72
2022-10-21T09:38:02.666Z,97682.31
2022-10-21T09:39:16.458Z,97670.75
2022-10-21T09:40:21.850Z,97666.13
2022-10-21T09:41:29.020Z,97665.63
2022-10-21T09:42:46.354Z,97661.41
2022-10-21T09:43:50.786Z,97658.31
2022-10-21T09:44:52.449Z,97657.94
2022-10-21T09:45:54.544Z,97653.66
2022-10-21T09:46:56.123Z,97658.47
2022-10-21T09:48:02.321Z,97656.19
2022-10-21T09:50:27.070Z,97655.97
2022-10-21T09:51:33.978Z,97651.41
2022-10-21T09:52:37.765Z,97647.94
2022-10-21T09:54:02.561Z,97647.94
2022-10-21T09:55:04.472Z,97648.03
2022-10-21T09:56:22.235Z,97652.69
2022-10-21T09:57:46.002Z,97640.56
2022-10-21T09:58:50.325Z,97648.56
2022-10-21T09:59:59.242Z,97640.06
2022-10-21T10:01:00.933Z,97637.00
2022-10-21T10:02:08.233Z,97629.44
2022-10-21T10:03:10.367Z,97637.41
2022-10-21T10:04:13.966Z,97632.16
2022-10-21T10:05:49.495Z,97634.22
2022-10-21T10:06:51.180Z,97630.84
2022-10-21T10:07:52.840Z,97620.75
2022-10-21T10:09:06.862Z,97615.03
2022-10-21T10:10:32.249Z,97609.69
2022-10-21T10:11:33.806Z,97611.03
2022-10-21T10:12:35.561Z,97604.75
2022-10-21T10:13:40.890Z,97605.88
2022-10-21T10:14:45.038Z,97605.44
2022-10-21T10:15:46.598Z,97600.00
2022-10-21T10:16:48.123Z,97598.16
2022-10-21T10:17:49.669Z,97602.09
2022-10-21T10:18:54.405Z,97598.16
2022-10-21T10:20:05.610Z,97595.59
2022-10-21T10:21:21.267Z,97599.22
2022-10-21T10:22:22.884Z,97588.88
2022-10-21T10:23:24.407Z,97590.94
2022-10-21T10:24:25.977Z,97593.66
2022-10-21T10:25:32.142Z,97596.00
2022-10-21T10:26:38.375Z,97595.66
2022-10-21T10:27:52.090Z,97593.91
2022-10-21T10:29:07.390Z,97592.56
2022-10-21T10:30:14.777Z,97588.22
2022-10-21T10:31:24.798Z,97587.16
2022-10-21T10:32:31.784Z,97592.91
2022-10-21T10:33:35.987Z,97589.81
2022-10-21T10:34:42.939Z,97587.31
2022-10-21T10:36:09.390Z,97588.66
2022-10-21T10:37:19.318Z,97583.94
2022-10-21T10:38:36.051Z,97587.00
2022-10-21T10:39:39.980Z,97581.75
2022-10-21T10:40:43.758Z,97584.91
2022-10-21T10:41:50.083Z,97575.22
2022-10-21T10:43:00.019Z,97577.66
2022-10-21T10:44:12.549Z,97581.44
2022-10-21T10:45:20.409Z,97569.75
2022-10-21T10:46:32.504Z,97576.22
2022-10-21T10:47:43.216Z,97571.94
2022-10-21T10:48:49.212Z,97578.59
2022-10-21T10:49:51.207Z,97567.69
2022-10-21T10:50:52.885Z,97568.25
2022-10-21T10:52:12.577Z,97567.88
2022-10-21T10:53:23.558Z,97562.66
2022-10-21T10:54:27.673Z,97559.63
2022-10-21T10:55:29.496Z,97549.31
2022-10-21T10:57:01.840Z,97549.13
2022-10-21T10:58:11.662Z,97549.84
2022-10-21T10:59:28.099Z,97552.03
2022-10-21T11:00:37.540Z,97541.81
2022-10-21T11:01:49.444Z,97544.91
2022-10-21T11:03:07.965Z,97538.50
2022-10-21T11:04:27.437Z,97547.47
2022-10-21T11:05:36.404Z,97532.00
2022-10-21T11:06:46.357Z,97532.97
2022-10-21T11:07:52.953Z,97532.53
2022-10-21T11:08:58.442Z,97523.22
2022-10-21T11:10:23.037Z,97520.00
2022-10-21T11:11:37.908Z,97516.66
2022-10-21T11:12:39.479Z,97514.41
2022-10-21T11:13:42.208Z,97520.28
2022-10-21T11:14:46.599Z,97513.75
2022-10-21T11:16:24.273Z,97508.38
2022-10-21T11:17:41.109Z,97501.28
2022-10-21T11:18:54.873Z,97501.47
2022-10-21T11:20:05.470Z,97499.22
2022-10-21T11:21:31.237Z,97497.44
2022-10-21T11:22:59.990Z,97490.94
2022-10-21T11:24:05.776Z,97503.75
2022-10-21T11:25:30.571Z,97499.72
2022-10-21T11:26:47.318Z,97503.09
2022-10-21T11:28:16.759Z,97499.31
2022-10-21T11:29:40.162Z,97497.13
2022-10-21T11:30:56.837Z,97498.78
2022-10-21T11:32:11.524Z,97493.75
2022-10-21T11:33:26.477Z,97483.13
2022-10-21T11:35:10.005Z,97490.16
2022-10-21T11:36:37.182Z,97481.53
2022-10-21T11:37:45.300Z,97488.41
2022-10-21T11:39:21.361Z,97486.91
2022-10-21T11:40:40.145Z,97479.94
2022-10-21T11:41:56.779Z,97479.13
2022-10-21T11:43:12.913Z,97483.75
2022-10-21T11:44:29.236Z,97472.66
2022-10-21T11:45:38.015Z,97473.88
2022-10-21T11:46:51.756Z,97476.25
2022-10-21T11:48:20.274Z,97470.09
2022-10-21T11:49:24.884Z,97463.56
2022-10-21T11:50:28.968Z,97468.28
2022-10-21T11:51:52.643Z,97472.19
2022-10-21T11:53:18.870Z,97467.94
2022-10-21T11:55:09.854Z,97456.41
2022-10-21T11:56:13.931Z,97453.38
2022-10-21T11:57:33.639Z,97463.88
2022-10-21T11:58:58.121Z,97452.66
2022-10-21T12:00:13.808Z,97452.59
2022-10-21T12:01:46.850Z,97453.06
2022-10-21T12:03:36.966Z,97447.56
2022-10-21T12:05:02.427Z,97455.78
2022-10-21T12:06:29.996Z,97445.66
2022-10-21T12:08:04.871Z,97441.38
2022-10-21T12:09:20.131Z,97440.28
2022-10-21T12:10:33.866Z,97442.69
2022-10-21T12:11:43.863Z,97441.50
2022-10-21T12:12:48.776Z,97440.25
2022-10-21T12:13:58.464Z,97434.44
2022-10-21T12:15:04.901Z,97440.97
2022-10-21T12:16:13.088Z,97435.47
2022-10-21T12:17:19.305Z,97435.13
2022-10-21T12:18:24.113Z,97429.34
2022-10-21T12:19:26.942Z,97432.47
2022-10-21T12:20:28.569Z,97419.25
2022-10-21T12:21:35.294Z,97428.56
2022-10-21T12:22:38.131Z,97428.63
2022-10-21T12:23:40.037Z,97425.63
2022-10-21T12:25:17.056Z,97421.97
2022-10-21T12:26:23.809Z,97423.13
2022-10-21T12:27:34.704Z,97424.56
2022-10-21T12:28:42.984Z,97425.38
2022-10-21T12:29:51.159Z,97425.38
2022-10-21T12:30:53.882Z,97417.66
2022-10-21T12:32:33.050Z,97416.09
2022-10-21T12:33:39.568Z,97411.31
2022-10-21T12:34:41.597Z,97416.41
2022-10-21T12:35:53.249Z,97421.75
2022-10-21T12:36:55.077Z,97412.03
2022-10-21T12:37:56.580Z,97415.97
2022-10-21T12:38:59.217Z,97413.94
2022-10-21T12:40:13.923Z,97415.91
2022-10-21T12:41:24.274Z,97420.97
2022-10-21T12:42:29.175Z,97416.75
2022-10-21T12:43:30.818Z,97420.63
2022-10-21T12:44:33.645Z,97415.19
2022-10-21T12:45:38.087Z,97408.19
2022-10-21T12:46:40.316Z,97408.25
2022-10-21T12:47:45.264Z,97415.19
2022-10-21T12:48:49.057Z,97414.38
2022-10-21T12:50:30.175Z,97412.03
2022-10-21T12:51:34.153Z,97405.81
2022-10-21T12:52:38.470Z,97412.00
2022-10-21T12:53:49.270Z,97406.22
2022-10-21T12:54:59.064Z,97399.63
2022-10-21T12:56:01.270Z,97399.19
2022-10-21T12:57:20.624Z,97396.56
2022-10-21T12:58:37.800Z,97404.06
2022-10-21T12:59:42.771Z,97407.91
2022-10-21T13:00:44.372Z,97403.63
2022-10-21T13:02:06.615Z,97398.19
2022-10-21T13:03:23.013Z,97397.06
2022-10-21T13:04:35.204Z,97399.41
2022-10-21T13:05:36.664Z,97390.50